SIA635 RJTT-WSSS
Flight info
| Callsign | SIA635 |
|---|---|
| Flight time | N/A |
| Altitude | 36000 |
| Route | LAXAS Y56 NADAR Z26 TONAR Y52 IGURU G581 TULTO Q13 KABAM N892 MIGUG/K0915F360 N892 MELAS/N0495F360 N892 MABAL MABAL2A |
| Aircraft | B77W/H-SDE1E2E3FGHIJ4J5M1P2RWXYZ/LB1D1 |
Departure
| Time | N/A |
|---|---|
| Airport | Tokyo Haneda International Airport (RJTT) |
Arrival
| Time | 2026-05-07 09:36 |
|---|---|
| Airport | Singapore Changi Airport (WSSS) |
| Time | Latitude | Longitude | Altitude | Speed | Heading |
|---|---|---|---|---|---|
| 2026-05-07 08:13 | 9.32049 | 109.70219 | 35791 ft | 495 kts | 215° |
| 2026-05-07 08:14 | 9.29227 | 109.68238 | 35792 ft | 494 kts | 215° |
| 2026-05-07 08:14 | 9.23578 | 109.64275 | 35791 ft | 494 kts | 215° |
| 2026-05-07 08:15 | 9.17924 | 109.60310 | 35797 ft | 495 kts | 215° |
| 2026-05-07 08:15 | 9.12250 | 109.56331 | 35801 ft | 494 kts | 215° |
| 2026-05-07 08:16 | 9.06589 | 109.52364 | 35803 ft | 494 kts | 215° |
| 2026-05-07 08:16 | 9.00948 | 109.48414 | 35804 ft | 495 kts | 215° |
| 2026-05-07 08:17 | 8.95299 | 109.44458 | 35797 ft | 494 kts | 215° |
| 2026-05-07 08:17 | 8.89623 | 109.40485 | 35791 ft | 495 kts | 215° |
| 2026-05-07 08:18 | 8.83943 | 109.36510 | 35786 ft | 494 kts | 215° |
| 2026-05-07 08:18 | 8.78311 | 109.32583 | 35786 ft | 495 kts | 214° |
| 2026-05-07 08:19 | 8.72613 | 109.28622 | 35781 ft | 493 kts | 214° |
| 2026-05-07 08:19 | 8.66963 | 109.24696 | 35779 ft | 493 kts | 214° |
| 2026-05-07 08:20 | 8.61308 | 109.20766 | 35779 ft | 494 kts | 214° |
| 2026-05-07 08:20 | 8.55618 | 109.16814 | 35780 ft | 495 kts | 214° |
| 2026-05-07 08:21 | 8.49952 | 109.12880 | 35778 ft | 494 kts | 214° |
| 2026-05-07 08:21 | 8.44259 | 109.08929 | 35780 ft | 494 kts | 214° |
| 2026-05-07 08:22 | 8.38590 | 109.04997 | 35782 ft | 494 kts | 214° |
| 2026-05-07 08:22 | 8.32922 | 109.01064 | 35781 ft | 493 kts | 214° |
| 2026-05-07 08:23 | 8.27259 | 108.97138 | 35780 ft | 493 kts | 214° |
| 2026-05-07 08:23 | 8.21596 | 108.93214 | 35780 ft | 494 kts | 214° |
| 2026-05-07 08:24 | 8.15960 | 108.89309 | 35781 ft | 493 kts | 214° |
| 2026-05-07 08:24 | 8.10289 | 108.85381 | 35781 ft | 494 kts | 214° |
| 2026-05-07 08:25 | 8.04621 | 108.81456 | 35779 ft | 493 kts | 214° |
| 2026-05-07 08:25 | 7.98967 | 108.77543 | 35780 ft | 493 kts | 214° |
| 2026-05-07 08:26 | 7.90447 | 108.71648 | 35774 ft | 494 kts | 214° |
| 2026-05-07 08:26 | 7.84760 | 108.67715 | 35764 ft | 494 kts | 214° |
| 2026-05-07 08:27 | 7.79119 | 108.63816 | 35761 ft | 494 kts | 214° |
| 2026-05-07 08:27 | 7.73434 | 108.59888 | 35760 ft | 495 kts | 214° |
| 2026-05-07 08:28 | 7.67745 | 108.55957 | 35761 ft | 495 kts | 214° |
| 2026-05-07 08:28 | 7.62085 | 108.52048 | 35765 ft | 494 kts | 214° |
| 2026-05-07 08:29 | 7.56414 | 108.48134 | 35772 ft | 494 kts | 214° |
| 2026-05-07 08:29 | 7.50724 | 108.44207 | 35779 ft | 495 kts | 214° |
| 2026-05-07 08:30 | 7.45024 | 108.40274 | 35780 ft | 495 kts | 214° |
| 2026-05-07 08:30 | 7.39366 | 108.36371 | 35784 ft | 495 kts | 214° |
| 2026-05-07 08:31 | 7.33654 | 108.32433 | 35778 ft | 494 kts | 214° |
| 2026-05-07 08:31 | 7.27973 | 108.28517 | 35780 ft | 494 kts | 214° |
| 2026-05-07 08:32 | 7.22290 | 108.24602 | 35778 ft | 495 kts | 214° |
| 2026-05-07 08:32 | 7.16602 | 108.20682 | 35780 ft | 494 kts | 213° |
| 2026-05-07 08:33 | 7.10894 | 108.16752 | 35780 ft | 495 kts | 213° |
| 2026-05-07 08:33 | 7.05230 | 108.12830 | 35780 ft | 494 kts | 214° |
| 2026-05-07 08:34 | 6.99561 | 108.08874 | 35780 ft | 494 kts | 214° |
| 2026-05-07 08:34 | 6.93940 | 108.04954 | 35784 ft | 494 kts | 214° |
| 2026-05-07 08:35 | 6.88253 | 108.00989 | 35778 ft | 495 kts | 214° |
| 2026-05-07 08:35 | 6.82612 | 107.97059 | 35777 ft | 494 kts | 214° |
| 2026-05-07 08:36 | 6.76921 | 107.93095 | 35777 ft | 494 kts | 214° |
| 2026-05-07 08:36 | 6.71282 | 107.89170 | 35773 ft | 495 kts | 214° |
| 2026-05-07 08:37 | 6.65611 | 107.85223 | 35766 ft | 494 kts | 213° |
| 2026-05-07 08:37 | 6.59949 | 107.81284 | 35762 ft | 494 kts | 213° |
| 2026-05-07 08:38 | 6.54284 | 107.77344 | 35763 ft | 493 kts | 213° |
| 2026-05-07 08:38 | 6.48614 | 107.73402 | 35761 ft | 495 kts | 213° |
| 2026-05-07 08:39 | 6.42948 | 107.69463 | 35761 ft | 494 kts | 213° |
| 2026-05-07 08:39 | 6.37309 | 107.65543 | 35760 ft | 493 kts | 213° |
| 2026-05-07 08:40 | 6.31634 | 107.61599 | 35765 ft | 493 kts | 213° |
| 2026-05-07 08:40 | 6.25990 | 107.57680 | 35762 ft | 493 kts | 213° |
| 2026-05-07 08:41 | 6.20359 | 107.53770 | 35762 ft | 493 kts | 213° |
| 2026-05-07 08:41 | 6.14693 | 107.49837 | 35762 ft | 494 kts | 213° |
| 2026-05-07 08:42 | 6.09027 | 107.45904 | 35768 ft | 493 kts | 213° |
| 2026-05-07 08:42 | 6.03402 | 107.42001 | 35769 ft | 493 kts | 213° |
| 2026-05-07 08:43 | 5.97760 | 107.38088 | 35776 ft | 491 kts | 213° |
| 2026-05-07 08:43 | 5.92111 | 107.34170 | 35781 ft | 491 kts | 213° |
| 2026-05-07 08:44 | 5.86486 | 107.30270 | 35781 ft | 492 kts | 213° |
| 2026-05-07 08:44 | 5.80837 | 107.26354 | 35779 ft | 492 kts | 213° |
| 2026-05-07 08:45 | 5.75215 | 107.22458 | 35780 ft | 493 kts | 213° |
| 2026-05-07 08:45 | 5.69570 | 107.18548 | 35779 ft | 492 kts | 213° |
| 2026-05-07 08:46 | 5.63894 | 107.14616 | 35781 ft | 492 kts | 213° |
| 2026-05-07 08:46 | 5.58278 | 107.10727 | 35778 ft | 492 kts | 213° |
| 2026-05-07 08:47 | 5.52620 | 107.06811 | 35775 ft | 491 kts | 213° |
| 2026-05-07 08:47 | 5.47016 | 107.02931 | 35768 ft | 491 kts | 213° |
| 2026-05-07 08:48 | 5.41347 | 106.99008 | 35762 ft | 492 kts | 213° |
| 2026-05-07 08:48 | 5.35737 | 106.95127 | 35762 ft | 492 kts | 213° |
| 2026-05-07 08:49 | 5.30094 | 106.91223 | 35759 ft | 492 kts | 213° |
| 2026-05-07 08:49 | 5.24427 | 106.87305 | 35760 ft | 492 kts | 213° |
| 2026-05-07 08:50 | 5.18795 | 106.83411 | 35757 ft | 491 kts | 213° |
| 2026-05-07 08:50 | 5.13148 | 106.79508 | 35762 ft | 492 kts | 213° |
| 2026-05-07 08:51 | 5.07517 | 106.75616 | 35760 ft | 492 kts | 213° |
| 2026-05-07 08:51 | 5.01870 | 106.71715 | 35762 ft | 492 kts | 213° |
| 2026-05-07 08:52 | 4.96227 | 106.67817 | 35761 ft | 492 kts | 213° |
| 2026-05-07 08:52 | 4.90603 | 106.63934 | 35761 ft | 492 kts | 213° |
| 2026-05-07 08:53 | 4.84925 | 106.60012 | 35763 ft | 492 kts | 213° |
| 2026-05-07 08:53 | 4.79304 | 106.56132 | 35761 ft | 491 kts | 213° |
| 2026-05-07 08:54 | 4.73654 | 106.52232 | 35761 ft | 491 kts | 213° |
| 2026-05-07 08:54 | 4.68008 | 106.48337 | 35761 ft | 492 kts | 213° |
| 2026-05-07 08:55 | 4.62366 | 106.44444 | 35762 ft | 491 kts | 213° |
| 2026-05-07 08:55 | 4.56729 | 106.40556 | 35767 ft | 491 kts | 213° |
| 2026-05-07 08:56 | 4.51246 | 106.36774 | 35776 ft | 491 kts | 213° |
| 2026-05-07 08:56 | 4.45604 | 106.32884 | 35779 ft | 491 kts | 213° |
| 2026-05-07 08:57 | 4.39975 | 106.29003 | 35781 ft | 491 kts | 213° |
| 2026-05-07 08:57 | 4.34346 | 106.25123 | 35780 ft | 490 kts | 213° |
| 2026-05-07 08:58 | 4.28856 | 106.21021 | 35775 ft | 491 kts | 223° |
| 2026-05-07 08:58 | 4.24379 | 106.15866 | 35775 ft | 493 kts | 230° |
| 2026-05-07 08:59 | 4.20050 | 106.10526 | 35776 ft | 492 kts | 230° |
| 2026-05-07 08:59 | 4.15728 | 106.05196 | 35773 ft | 494 kts | 230° |
| 2026-05-07 09:00 | 4.11412 | 105.99877 | 35766 ft | 493 kts | 230° |
| 2026-05-07 09:00 | 4.07085 | 105.94546 | 35761 ft | 492 kts | 230° |
| 2026-05-07 09:01 | 4.02762 | 105.89223 | 35767 ft | 491 kts | 230° |
| 2026-05-07 09:01 | 3.98465 | 105.83933 | 35759 ft | 492 kts | 230° |
| 2026-05-07 09:02 | 3.94152 | 105.78624 | 35761 ft | 491 kts | 230° |
| 2026-05-07 09:02 | 3.89834 | 105.73310 | 35769 ft | 491 kts | 230° |
| 2026-05-07 09:03 | 3.85517 | 105.67998 | 35780 ft | 492 kts | 229° |
| 2026-05-07 09:03 | 3.81202 | 105.62688 | 35787 ft | 491 kts | 229° |
| 2026-05-07 09:04 | 3.76874 | 105.57365 | 35787 ft | 492 kts | 230° |
| 2026-05-07 09:04 | 3.72575 | 105.52077 | 35788 ft | 492 kts | 229° |
| 2026-05-07 09:05 | 3.68263 | 105.46754 | 35788 ft | 492 kts | 229° |
| 2026-05-07 09:05 | 3.63955 | 105.41436 | 35787 ft | 492 kts | 230° |
| 2026-05-07 09:06 | 3.59640 | 105.36111 | 35789 ft | 492 kts | 230° |
| 2026-05-07 09:06 | 3.55337 | 105.30804 | 35784 ft | 493 kts | 229° |
| 2026-05-07 09:07 | 3.51023 | 105.25481 | 35782 ft | 493 kts | 229° |
| 2026-05-07 09:07 | 3.46694 | 105.20144 | 35784 ft | 494 kts | 229° |
| 2026-05-07 09:08 | 3.42336 | 105.14771 | 35785 ft | 495 kts | 229° |
| 2026-05-07 09:08 | 3.38016 | 105.09446 | 35781 ft | 494 kts | 229° |
| 2026-05-07 09:09 | 3.33663 | 105.04082 | 35772 ft | 495 kts | 230° |
| 2026-05-07 09:09 | 3.29356 | 104.98773 | 35584 ft | 488 kts | 229° |
| 2026-05-07 09:10 | 3.27215 | 104.96135 | 34669 ft | 490 kts | 229° |
| 2026-05-07 09:10 | 3.25080 | 104.93505 | 33725 ft | 492 kts | 229° |
| 2026-05-07 09:10 | 3.22924 | 104.90849 | 32863 ft | 492 kts | 229° |
| 2026-05-07 09:10 | 3.20779 | 104.88207 | 32039 ft | 492 kts | 229° |
| 2026-05-07 09:11 | 3.18601 | 104.85525 | 31168 ft | 497 kts | 229° |
| 2026-05-07 09:11 | 3.16399 | 104.82816 | 30309 ft | 515 kts | 229° |
| 2026-05-07 09:11 | 3.14132 | 104.80025 | 29786 ft | 509 kts | 229° |
| 2026-05-07 09:11 | 3.11924 | 104.77303 | 29276 ft | 503 kts | 229° |
| 2026-05-07 09:12 | 3.09746 | 104.74620 | 28715 ft | 499 kts | 229° |
| 2026-05-07 09:12 | 3.07553 | 104.71920 | 28139 ft | 494 kts | 229° |
| 2026-05-07 09:12 | 3.05388 | 104.69254 | 27560 ft | 491 kts | 229° |
| 2026-05-07 09:12 | 3.03253 | 104.66628 | 26982 ft | 487 kts | 229° |
| 2026-05-07 09:13 | 3.00994 | 104.64131 | 26384 ft | 483 kts | 225° |
| 2026-05-07 09:13 | 2.98700 | 104.61716 | 25757 ft | 480 kts | 225° |
| 2026-05-07 09:13 | 2.96387 | 104.59277 | 25146 ft | 477 kts | 225° |
| 2026-05-07 09:13 | 2.94128 | 104.56888 | 24556 ft | 472 kts | 225° |
| 2026-05-07 09:14 | 2.91900 | 104.54527 | 23966 ft | 468 kts | 225° |
| 2026-05-07 09:14 | 2.89671 | 104.52158 | 23373 ft | 464 kts | 225° |
| 2026-05-07 09:14 | 2.87466 | 104.49812 | 22789 ft | 460 kts | 225° |
| 2026-05-07 09:14 | 2.85289 | 104.47491 | 22202 ft | 457 kts | 225° |
| 2026-05-07 09:15 | 2.83125 | 104.45184 | 21636 ft | 453 kts | 225° |
| 2026-05-07 09:15 | 2.80954 | 104.42870 | 21044 ft | 451 kts | 225° |
| 2026-05-07 09:15 | 2.78835 | 104.40608 | 20444 ft | 448 kts | 225° |
| 2026-05-07 09:15 | 2.76723 | 104.38354 | 19850 ft | 446 kts | 225° |
| 2026-05-07 09:16 | 2.74594 | 104.36080 | 19239 ft | 444 kts | 226° |
| 2026-05-07 09:16 | 2.72502 | 104.33846 | 18635 ft | 441 kts | 226° |
| 2026-05-07 09:16 | 2.70391 | 104.31591 | 18020 ft | 439 kts | 226° |
| 2026-05-07 09:16 | 2.68334 | 104.29394 | 17419 ft | 436 kts | 226° |
| 2026-05-07 09:17 | 2.66254 | 104.27174 | 16812 ft | 433 kts | 226° |
| 2026-05-07 09:17 | 2.64197 | 104.24976 | 16199 ft | 430 kts | 226° |
| 2026-05-07 09:17 | 2.62181 | 104.22826 | 15595 ft | 428 kts | 226° |
| 2026-05-07 09:17 | 2.60137 | 104.20642 | 15026 ft | 423 kts | 226° |
| 2026-05-07 09:18 | 2.58176 | 104.18548 | 14878 ft | 407 kts | 226° |
| 2026-05-07 09:18 | 2.56274 | 104.16516 | 14776 ft | 391 kts | 226° |
| 2026-05-07 09:18 | 2.54433 | 104.14568 | 14626 ft | 377 kts | 223° |
| 2026-05-07 09:18 | 2.52439 | 104.12960 | 14441 ft | 362 kts | 210° |
| 2026-05-07 09:19 | 2.50219 | 104.11900 | 14290 ft | 338 kts | 197° |
| 2026-05-07 09:19 | 2.48012 | 104.11262 | 14032 ft | 329 kts | 189° |
| 2026-05-07 09:19 | 2.45732 | 104.10872 | 13579 ft | 330 kts | 186° |
| 2026-05-07 09:19 | 2.43436 | 104.10635 | 13115 ft | 331 kts | 181° |
| 2026-05-07 09:20 | 2.41150 | 104.10539 | 12682 ft | 330 kts | 179° |
| 2026-05-07 09:20 | 2.38850 | 104.10509 | 12256 ft | 329 kts | 178° |
| 2026-05-07 09:20 | 2.36561 | 104.10501 | 11959 ft | 323 kts | 178° |
| 2026-05-07 09:20 | 2.34300 | 104.10500 | 11647 ft | 319 kts | 178° |
| 2026-05-07 09:21 | 2.32099 | 104.10500 | 11264 ft | 318 kts | 178° |
| 2026-05-07 09:21 | 2.29880 | 104.10500 | 10889 ft | 317 kts | 178° |
| 2026-05-07 09:21 | 2.27682 | 104.10510 | 10502 ft | 315 kts | 178° |
| 2026-05-07 09:21 | 2.25482 | 104.10516 | 10087 ft | 313 kts | 178° |
| 2026-05-07 09:22 | 2.23300 | 104.10510 | 9885 ft | 305 kts | 179° |
| 2026-05-07 09:22 | 2.21190 | 104.10498 | 9509 ft | 299 kts | 178° |
| 2026-05-07 09:22 | 2.19120 | 104.10503 | 9117 ft | 294 kts | 177° |
| 2026-05-07 09:22 | 2.17029 | 104.10502 | 8766 ft | 287 kts | 180° |
| 2026-05-07 09:23 | 2.15009 | 104.10494 | 8439 ft | 285 kts | 178° |
| 2026-05-07 09:23 | 2.13032 | 104.10506 | 8079 ft | 285 kts | 178° |
| 2026-05-07 09:23 | 2.11046 | 104.10529 | 7729 ft | 285 kts | 179° |
| 2026-05-07 09:23 | 2.09060 | 104.10505 | 7386 ft | 283 kts | 179° |
| 2026-05-07 09:24 | 2.07089 | 104.10516 | 7038 ft | 282 kts | 179° |
| 2026-05-07 09:24 | 2.05114 | 104.10529 | 6706 ft | 281 kts | 179° |
| 2026-05-07 09:24 | 2.03161 | 104.10512 | 6380 ft | 279 kts | 180° |
| 2026-05-07 09:24 | 2.01214 | 104.10554 | 6060 ft | 277 kts | 179° |
| 2026-05-07 09:25 | 1.99314 | 104.10538 | 5988 ft | 264 kts | 179° |
| 2026-05-07 09:25 | 1.97526 | 104.10529 | 5904 ft | 254 kts | 179° |
| 2026-05-07 09:25 | 1.95771 | 104.10487 | 5768 ft | 246 kts | 179° |
| 2026-05-07 09:25 | 1.94045 | 104.10507 | 5604 ft | 245 kts | 177° |
| 2026-05-07 09:26 | 1.92339 | 104.10534 | 5469 ft | 246 kts | 178° |
| 2026-05-07 09:26 | 1.90606 | 104.10513 | 5321 ft | 245 kts | 179° |
| 2026-05-07 09:26 | 1.88860 | 104.10513 | 5190 ft | 243 kts | 177° |
| 2026-05-07 09:26 | 1.87148 | 104.10526 | 5053 ft | 242 kts | 177° |
| 2026-05-07 09:27 | 1.85462 | 104.10560 | 4915 ft | 241 kts | 178° |
| 2026-05-07 09:27 | 1.83774 | 104.10568 | 4768 ft | 242 kts | 178° |
| 2026-05-07 09:27 | 1.80418 | 104.10583 | 4498 ft | 239 kts | 178° |
| 2026-05-07 09:28 | 1.78753 | 104.10599 | 4384 ft | 238 kts | 178° |
| 2026-05-07 09:28 | 1.77068 | 104.10606 | 4246 ft | 238 kts | 178° |
| 2026-05-07 09:28 | 1.75415 | 104.10630 | 4118 ft | 238 kts | 178° |
| 2026-05-07 09:28 | 1.73749 | 104.10611 | 3984 ft | 237 kts | 178° |
| 2026-05-07 09:29 | 1.72086 | 104.10614 | 3841 ft | 238 kts | 178° |
| 2026-05-07 09:29 | 1.70418 | 104.10638 | 3714 ft | 238 kts | 178° |
| 2026-05-07 09:29 | 1.68766 | 104.10613 | 3594 ft | 237 kts | 181° |
| 2026-05-07 09:29 | 1.67117 | 104.10446 | 3457 ft | 237 kts | 188° |
| 2026-05-07 09:30 | 1.65473 | 104.10111 | 3312 ft | 237 kts | 193° |
| 2026-05-07 09:30 | 1.63893 | 104.09636 | 3186 ft | 237 kts | 197° |
| 2026-05-07 09:30 | 1.62327 | 104.09105 | 3047 ft | 236 kts | 198° |
| 2026-05-07 09:30 | 1.60798 | 104.08529 | 3001 ft | 236 kts | 200° |
| 2026-05-07 09:31 | 1.59252 | 104.07903 | 3012 ft | 236 kts | 200° |
| 2026-05-07 09:31 | 1.57708 | 104.07295 | 2991 ft | 234 kts | 200° |
| 2026-05-07 09:31 | 1.56245 | 104.06702 | 2970 ft | 220 kts | 201° |
| 2026-05-07 09:31 | 1.54869 | 104.06125 | 2931 ft | 208 kts | 201° |
| 2026-05-07 09:32 | 1.53576 | 104.05591 | 2871 ft | 194 kts | 201° |
| 2026-05-07 09:32 | 1.52340 | 104.05054 | 2593 ft | 192 kts | 200° |
| 2026-05-07 09:32 | 1.51120 | 104.04563 | 2515 ft | 192 kts | 201° |
| 2026-05-07 09:32 | 1.49865 | 104.04024 | 2442 ft | 197 kts | 202° |
| 2026-05-07 09:33 | 1.48621 | 104.03483 | 2208 ft | 190 kts | 200° |
| 2026-05-07 09:33 | 1.47443 | 104.02999 | 1962 ft | 175 kts | 200° |
| 2026-05-07 09:33 | 1.46373 | 104.02561 | 1782 ft | 161 kts | 200° |
| 2026-05-07 09:33 | 1.45331 | 104.02135 | 1590 ft | 158 kts | 202° |
| 2026-05-07 09:34 | 1.44317 | 104.01689 | 1401 ft | 156 kts | 200° |
| 2026-05-07 09:34 | 1.43308 | 104.01278 | 1202 ft | 156 kts | 200° |
| 2026-05-07 09:34 | 1.42316 | 104.00851 | 1011 ft | 151 kts | 200° |
| 2026-05-07 09:34 | 1.41352 | 104.00459 | 815 ft | 152 kts | 200° |
| 2026-05-07 09:35 | 1.40403 | 104.00075 | 630 ft | 149 kts | 201° |
| 2026-05-07 09:35 | 1.39449 | 103.99658 | 428 ft | 148 kts | 200° |
| 2026-05-07 09:35 | 1.38498 | 103.99258 | 263 ft | 150 kts | 198° |
| 2026-05-07 09:35 | 1.37543 | 103.98863 | 55 ft | 145 kts | 200° |
| 2026-05-07 09:36 | 1.36687 | 103.98502 | 41 ft | 115 kts | 203° |
| 2026-05-07 09:36 | 1.36062 | 103.98238 | 41 ft | 71 kts | 202° |
| 2026-05-07 09:36 | 1.35751 | 103.98122 | 39 ft | 29 kts | 190° |
| 2026-05-07 09:36 | 1.35587 | 103.98118 | 37 ft | 18 kts | 173° |
| 2026-05-07 09:37 | 1.35466 | 103.98133 | 35 ft | 13 kts | 173° |
| 2026-05-07 09:37 | 1.35387 | 103.98141 | 35 ft | 11 kts | 174° |
| 2026-05-07 09:37 | 1.35343 | 103.98146 | 34 ft | 5 kts | 166° |
| 2026-05-07 09:37 | 1.35319 | 103.98170 | 34 ft | 5 kts | 113° |
| 2026-05-07 09:38 | 1.35301 | 103.98190 | 35 ft | 3 kts | 151° |
| 2026-05-07 09:38 | 1.35273 | 103.98196 | 36 ft | 4 kts | 187° |
| 2026-05-07 09:38 | 1.35231 | 103.98180 | 36 ft | 7 kts | 201° |
| 2026-05-07 09:38 | 1.35179 | 103.98166 | 37 ft | 7 kts | 180° |
| 2026-05-07 09:39 | 1.35138 | 103.98186 | 38 ft | 6 kts | 118° |
| 2026-05-07 09:39 | 1.35120 | 103.98222 | 39 ft | 4 kts | 130° |
| 2026-05-07 09:39 | 1.35095 | 103.98238 | 40 ft | 3 kts | 152° |
| 2026-05-07 09:39 | 1.35074 | 103.98249 | 40 ft | 2 kts | 154° |
| 2026-05-07 09:40 | 1.35060 | 103.98256 | 41 ft | 1 kts | 154° |
| 2026-05-07 09:40 | 1.35051 | 103.98260 | 41 ft | 0 kts | 154° |
| 2026-05-07 09:40 | 1.35049 | 103.98261 | 41 ft | 0 kts | 154° |